createdAt,value
2022-08-19T00:01:37.925Z,22.40
2022-08-19T00:04:08.666Z,22.40
2022-08-19T00:06:36.610Z,22.30
2022-08-19T00:09:05.758Z,22.30
2022-08-19T00:11:32.389Z,22.30
2022-08-19T00:13:59.774Z,22.20
2022-08-19T00:16:26.937Z,22.20
2022-08-19T00:18:56.210Z,22.10
2022-08-19T00:21:24.441Z,22.10
2022-08-19T00:23:51.331Z,22.10
2022-08-19T00:26:17.967Z,22.20
2022-08-19T00:28:44.574Z,22.30
2022-08-19T00:31:11.671Z,22.20
2022-08-19T00:33:38.925Z,22.20
2022-08-19T00:36:08.234Z,22.20
2022-08-19T00:38:37.988Z,22.10
2022-08-19T00:41:06.116Z,22.10
2022-08-19T00:43:33.076Z,22.10
2022-08-19T00:45:59.719Z,22.00
2022-08-19T00:48:26.414Z,22.00
2022-08-19T00:50:55.136Z,22.10
2022-08-19T00:53:26.835Z,21.90
2022-08-19T00:55:57.183Z,21.90
2022-08-19T00:58:28.336Z,21.90
2022-08-19T01:00:55.093Z,21.90
2022-08-19T01:03:22.591Z,22.00
2022-08-19T01:05:51.354Z,21.90
2022-08-19T01:08:20.856Z,21.90
2022-08-19T01:10:52.518Z,22.00
2022-08-19T01:13:22.372Z,21.90
2022-08-19T01:16:01.225Z,22.00
2022-08-19T01:18:29.375Z,21.80
2022-08-19T01:20:59.342Z,21.80
2022-08-19T01:23:43.279Z,21.70
2022-08-19T01:26:17.167Z,21.80
2022-08-19T01:28:47.540Z,21.90
2022-08-19T01:31:26.708Z,21.80
2022-08-19T01:33:56.936Z,21.80
2022-08-19T01:36:28.484Z,21.70
2022-08-19T01:38:55.701Z,21.70
2022-08-19T01:41:24.357Z,21.80
2022-08-19T01:44:13.280Z,21.90
2022-08-19T01:46:39.762Z,21.80
2022-08-19T01:49:07.140Z,21.80
2022-08-19T01:51:39.694Z,21.80
2022-08-19T01:54:07.348Z,21.90
2022-08-19T01:56:34.017Z,21.80
2022-08-19T01:59:09.233Z,21.90
2022-08-19T02:01:35.993Z,21.90
2022-08-19T02:04:03.110Z,21.80
2022-08-19T02:06:30.607Z,21.80
2022-08-19T02:08:57.672Z,21.80
2022-08-19T02:11:28.309Z,21.80
2022-08-19T02:13:55.727Z,21.70
2022-08-19T02:16:22.691Z,21.70
2022-08-19T02:18:49.444Z,21.70
2022-08-19T02:21:17.359Z,21.70
2022-08-19T02:23:44.542Z,21.70
2022-08-19T02:26:11.759Z,21.60
2022-08-19T02:28:38.393Z,21.60
2022-08-19T02:31:15.555Z,21.50
2022-08-19T02:33:42.478Z,21.40
2022-08-19T02:36:10.306Z,21.40
2022-08-19T02:38:37.999Z,21.30
2022-08-19T02:41:12.591Z,21.30
2022-08-19T02:43:44.374Z,21.20
2022-08-19T02:46:30.083Z,21.20
2022-08-19T02:48:59.338Z,21.10
2022-08-19T02:51:32.722Z,21.10
2022-08-19T02:54:00.848Z,21.00
2022-08-19T02:56:28.419Z,21.00
2022-08-19T02:58:59.228Z,21.00
2022-08-19T03:01:29.131Z,20.90
2022-08-19T03:03:57.350Z,20.90
2022-08-19T03:06:24.367Z,20.80
2022-08-19T03:08:51.741Z,20.80
2022-08-19T03:11:24.124Z,20.80
2022-08-19T03:13:51.762Z,20.70
2022-08-19T03:16:20.329Z,20.70
2022-08-19T03:18:47.351Z,20.70
2022-08-19T03:21:20.055Z,20.70
2022-08-19T03:23:47.151Z,20.70
2022-08-19T03:26:17.107Z,20.70
2022-08-19T03:28:51.129Z,20.60
2022-08-19T03:31:43.870Z,20.60
2022-08-19T03:34:12.490Z,20.60
2022-08-19T03:36:40.988Z,20.60
2022-08-19T03:39:09.344Z,20.60
2022-08-19T03:41:44.851Z,20.50
2022-08-19T03:44:12.634Z,20.60
2022-08-19T03:46:46.094Z,20.50
2022-08-19T03:49:14.300Z,20.50
2022-08-19T03:51:42.721Z,20.40
2022-08-19T03:54:11.517Z,20.50
2022-08-19T03:56:40.270Z,20.50
2022-08-19T03:59:10.116Z,20.40
2022-08-19T04:01:36.976Z,20.40
2022-08-19T04:04:04.716Z,20.40
2022-08-19T04:06:33.715Z,20.30
2022-08-19T04:09:02.199Z,20.30
2022-08-19T04:11:42.736Z,20.30
2022-08-19T04:14:13.147Z,20.40
2022-08-19T04:16:40.062Z,20.30
2022-08-19T04:19:07.649Z,20.40
2022-08-19T04:21:35.230Z,20.40
2022-08-19T04:24:02.207Z,20.30
2022-08-19T04:26:34.750Z,20.30
2022-08-19T04:29:05.914Z,20.20
2022-08-19T04:31:37.573Z,20.20
2022-08-19T04:34:11.218Z,20.20
2022-08-19T04:36:40.640Z,20.20
2022-08-19T04:39:13.515Z,20.20
2022-08-19T04:41:58.834Z,20.20
2022-08-19T04:44:26.462Z,20.30
2022-08-19T04:46:53.492Z,20.40
2022-08-19T04:49:23.120Z,20.40
2022-08-19T04:51:52.205Z,20.30
2022-08-19T04:54:37.600Z,20.30
2022-08-19T04:57:08.395Z,20.30
2022-08-19T04:59:35.930Z,20.30
2022-08-19T05:02:02.972Z,20.30
2022-08-19T05:04:33.665Z,20.40
2022-08-19T05:07:01.982Z,20.50
2022-08-19T05:09:42.134Z,20.40
2022-08-19T05:12:17.013Z,20.50
2022-08-19T05:14:46.474Z,20.40
2022-08-19T05:17:31.256Z,20.60
2022-08-19T05:20:18.574Z,20.80
2022-08-19T05:22:46.843Z,20.80
2022-08-19T05:25:19.784Z,20.90
2022-08-19T05:27:46.914Z,21.00
2022-08-19T05:30:14.022Z,21.00
2022-08-19T05:32:41.249Z,21.10
2022-08-19T05:35:08.506Z,21.10
2022-08-19T05:37:35.183Z,21.40
2022-08-19T05:40:02.401Z,21.30
2022-08-19T05:42:29.211Z,21.30
2022-08-19T05:44:57.531Z,21.40
2022-08-19T05:47:24.147Z,21.40
2022-08-19T05:49:52.239Z,21.70
2022-08-19T05:52:25.683Z,21.90
2022-08-19T05:54:55.546Z,22.10
2022-08-19T05:57:22.358Z,22.00
2022-08-19T05:59:52.679Z,22.10
2022-08-19T06:02:19.681Z,22.20
2022-08-19T06:04:46.311Z,22.20
2022-08-19T06:07:13.204Z,22.20
2022-08-19T06:09:40.998Z,22.40
2022-08-19T06:12:10.164Z,22.40
2022-08-19T06:14:40.290Z,22.60
2022-08-19T06:17:08.489Z,22.60
2022-08-19T06:19:40.965Z,22.70
2022-08-19T06:22:08.910Z,22.80
2022-08-19T06:24:36.272Z,22.70
2022-08-19T06:27:04.159Z,22.80
2022-08-19T06:29:30.989Z,22.80
2022-08-19T06:32:00.060Z,22.80
2022-08-19T06:34:29.392Z,22.90
2022-08-19T06:36:57.878Z,23.00
2022-08-19T06:39:27.547Z,23.00
2022-08-19T06:42:00.483Z,23.10
2022-08-19T06:44:35.163Z,23.10
2022-08-19T06:47:09.649Z,23.20
2022-08-19T06:49:42.235Z,23.20
2022-08-19T06:52:13.883Z,23.30
2022-08-19T06:54:55.460Z,23.30
2022-08-19T06:57:24.477Z,23.30
2022-08-19T06:59:51.182Z,23.50
2022-08-19T07:04:46.395Z,23.50
2022-08-19T07:07:19.985Z,23.60
2022-08-19T07:09:51.796Z,23.60
2022-08-19T07:12:28.045Z,23.60
2022-08-19T07:14:56.242Z,23.90
2022-08-19T07:17:24.563Z,24.20
2022-08-19T07:19:51.647Z,24.30
2022-08-19T07:22:23.365Z,24.40
2022-08-19T07:24:52.013Z,24.60
2022-08-19T07:27:25.143Z,24.80
2022-08-19T07:29:57.112Z,24.80
2022-08-19T07:32:27.567Z,25.10
2022-08-19T07:34:56.504Z,25.20
2022-08-19T07:37:28.357Z,25.10
2022-08-19T07:39:57.470Z,25.00
2022-08-19T07:42:24.254Z,24.90
2022-08-19T07:44:51.144Z,24.80
2022-08-19T07:47:48.172Z,24.90
2022-08-19T07:50:08.397Z,24.90
2022-08-19T07:52:36.789Z,25.00
2022-08-19T07:55:05.056Z,25.10
2022-08-19T07:57:31.918Z,25.30
2022-08-19T07:59:58.659Z,25.50
2022-08-19T08:02:25.292Z,25.60
2022-08-19T08:05:10.455Z,25.40
2022-08-19T08:07:55.713Z,25.30
2022-08-19T08:10:24.234Z,25.20
2022-08-19T08:13:09.995Z,25.20
2022-08-19T08:15:43.103Z,25.20
2022-08-19T08:18:11.824Z,25.20
2022-08-19T08:20:38.912Z,25.00
2022-08-19T08:23:26.680Z,24.80
2022-08-19T08:25:56.294Z,24.60
2022-08-19T08:28:23.920Z,24.40
2022-08-19T08:30:51.191Z,24.60
2022-08-19T08:33:33.180Z,24.60
2022-08-19T08:36:05.256Z,24.70
2022-08-19T08:38:39.116Z,24.80
2022-08-19T08:41:14.219Z,24.70
2022-08-19T08:43:45.175Z,24.80
2022-08-19T08:46:41.817Z,24.90
2022-08-19T08:49:41.926Z,25.10
2022-08-19T08:52:32.197Z,25.30
2022-08-19T08:55:10.025Z,25.20
2022-08-19T08:57:48.410Z,25.30
2022-08-19T09:00:22.135Z,25.50
2022-08-19T09:02:50.634Z,25.80
2022-08-19T09:05:22.050Z,25.80
2022-08-19T09:08:01.629Z,26.00
2022-08-19T09:10:34.584Z,26.10
2022-08-19T09:13:26.710Z,26.20
2022-08-19T09:15:59.136Z,26.20
2022-08-19T09:18:26.163Z,26.40
2022-08-19T09:20:57.061Z,26.40
2022-08-19T09:23:26.701Z,26.70
2022-08-19T09:25:53.991Z,27.10
2022-08-19T09:28:27.095Z,27.00
2022-08-19T09:30:54.277Z,26.70
2022-08-19T09:33:21.100Z,26.60
2022-08-19T09:35:53.140Z,26.20
2022-08-19T09:38:21.631Z,26.10
2022-08-19T09:40:48.502Z,26.20
2022-08-19T09:43:15.086Z,26.40
2022-08-19T09:46:01.115Z,26.70
2022-08-19T09:48:27.774Z,26.80
2022-08-19T09:50:55.084Z,27.00
2022-08-19T09:53:25.237Z,27.10
2022-08-19T09:55:52.640Z,27.30
2022-08-19T09:58:22.273Z,27.30
2022-08-19T10:00:51.625Z,27.10
2022-08-19T10:03:18.346Z,26.90
2022-08-19T10:05:55.261Z,26.70
2022-08-19T10:08:26.660Z,26.80
2022-08-19T10:10:55.654Z,26.90
2022-08-19T10:13:25.797Z,26.70
2022-08-19T10:15:54.179Z,26.60
2022-08-19T10:18:24.008Z,26.80
2022-08-19T10:20:55.414Z,26.90
2022-08-19T10:23:22.550Z,27.10
2022-08-19T10:25:50.451Z,27.20
2022-08-19T10:28:19.262Z,27.50
2022-08-19T10:30:46.562Z,27.50
2022-08-19T10:33:14.874Z,27.00
2022-08-19T10:35:56.283Z,27.10
2022-08-19T10:38:32.490Z,27.20
2022-08-19T10:41:14.413Z,27.20
2022-08-19T10:43:42.549Z,27.30
2022-08-19T10:46:16.888Z,27.50
2022-08-19T10:48:45.449Z,27.70
2022-08-19T10:51:32.004Z,27.90
2022-08-19T10:53:59.803Z,28.10
2022-08-19T10:56:46.002Z,27.90
2022-08-19T10:59:14.559Z,27.90
2022-08-19T11:01:42.977Z,27.70
2022-08-19T11:04:14.365Z,27.90
2022-08-19T11:06:44.309Z,28.00
2022-08-19T11:09:12.327Z,28.00
2022-08-19T11:11:41.664Z,28.10
2022-08-19T11:14:14.635Z,27.90
2022-08-19T11:16:43.135Z,27.80
2022-08-19T11:19:12.221Z,28.00
2022-08-19T11:21:41.846Z,28.20
2022-08-19T11:24:11.867Z,28.20
2022-08-19T11:26:39.896Z,28.00
2022-08-19T11:29:12.198Z,28.00
2022-08-19T11:31:42.338Z,28.30
2022-08-19T11:34:12.802Z,28.20
2022-08-19T11:36:43.609Z,28.10
2022-08-19T11:39:12.095Z,28.20
2022-08-19T11:41:39.102Z,28.40
2022-08-19T11:44:08.506Z,28.50
2022-08-19T11:46:39.046Z,28.50
2022-08-19T11:49:13.203Z,28.40
2022-08-19T11:51:40.706Z,28.40
2022-08-19T11:54:07.583Z,28.50
2022-08-19T11:56:34.219Z,28.80
2022-08-19T11:59:02.474Z,28.80
2022-08-19T12:01:29.320Z,28.80
2022-08-19T12:03:57.220Z,28.60
2022-08-19T12:06:29.424Z,28.70
2022-08-19T12:08:58.036Z,28.70
2022-08-19T12:11:25.022Z,29.00
2022-08-19T12:13:51.705Z,29.30
2022-08-19T12:16:24.759Z,29.40
2022-08-19T12:18:52.215Z,29.60
2022-08-19T12:21:26.038Z,29.70
2022-08-19T12:23:55.832Z,29.70
2022-08-19T12:26:23.832Z,29.60
2022-08-19T12:28:50.957Z,29.10
2022-08-19T12:31:18.811Z,28.70
2022-08-19T12:33:45.446Z,28.80
2022-08-19T12:36:14.251Z,28.90
2022-08-19T12:38:41.229Z,28.90
2022-08-19T12:41:11.756Z,29.00
2022-08-19T12:43:42.711Z,29.40
2022-08-19T12:46:10.887Z,29.80
2022-08-19T12:48:42.418Z,29.90
2022-08-19T12:51:15.415Z,30.00
2022-08-19T12:53:42.794Z,29.50
2022-08-19T12:56:12.598Z,28.90
2022-08-19T12:58:39.790Z,28.80
2022-08-19T13:01:14.447Z,28.70
2022-08-19T13:03:46.718Z,28.90
2022-08-19T13:06:13.987Z,29.10
2022-08-19T13:08:46.461Z,29.20
2022-08-19T13:11:16.380Z,29.40
2022-08-19T13:13:45.798Z,29.60
2022-08-19T13:16:14.084Z,29.70
2022-08-19T13:18:42.742Z,29.80
2022-08-19T13:21:12.481Z,30.10
2022-08-19T13:23:39.277Z,30.00
2022-08-19T13:26:07.790Z,29.80
2022-08-19T13:28:54.444Z,29.40
2022-08-19T13:31:42.847Z,29.00
2022-08-19T13:34:10.457Z,29.00
2022-08-19T13:36:38.204Z,29.30
2022-08-19T13:39:06.172Z,29.40
2022-08-19T13:41:32.982Z,29.80
2022-08-19T13:43:59.632Z,29.90
2022-08-19T13:46:28.155Z,30.10
2022-08-19T13:48:54.836Z,30.40
2022-08-19T13:51:21.502Z,30.30
2022-08-19T13:53:48.319Z,30.20
2022-08-19T13:56:17.352Z,30.00
2022-08-19T13:58:44.382Z,29.90
2022-08-19T14:01:11.874Z,29.90
2022-08-19T14:03:39.276Z,29.90
2022-08-19T14:06:06.106Z,29.80
2022-08-19T14:08:33.564Z,29.60
2022-08-19T14:11:00.469Z,29.60
2022-08-19T14:13:34.514Z,29.60
2022-08-19T14:16:01.368Z,29.60
2022-08-19T14:18:28.697Z,29.60
2022-08-19T14:20:57.723Z,29.40
2022-08-19T14:23:25.670Z,29.50
2022-08-19T14:25:52.266Z,29.50
2022-08-19T14:28:18.969Z,29.80
2022-08-19T14:30:45.533Z,29.80
2022-08-19T14:33:12.470Z,29.60
2022-08-19T14:35:39.069Z,29.50
2022-08-19T14:38:07.293Z,29.40
2022-08-19T14:40:34.125Z,29.40
2022-08-19T14:43:05.097Z,29.50
2022-08-19T14:45:37.927Z,29.60
2022-08-19T14:48:08.934Z,29.80
2022-08-19T14:50:45.623Z,30.00
2022-08-19T14:53:13.237Z,30.00
2022-08-19T14:55:47.570Z,30.20
2022-08-19T14:58:28.888Z,30.50
2022-08-19T15:01:00.871Z,30.70
2022-08-19T15:03:28.117Z,30.50
2022-08-19T15:05:55.234Z,30.30
2022-08-19T15:08:25.517Z,30.30
2022-08-19T15:10:53.122Z,30.20
2022-08-19T15:13:19.777Z,29.90
2022-08-19T15:15:48.237Z,29.70
2022-08-19T15:18:14.999Z,29.50
2022-08-19T15:20:42.075Z,29.50
2022-08-19T15:23:09.095Z,29.80
2022-08-19T15:25:36.598Z,29.80
2022-08-19T15:28:04.142Z,29.80
2022-08-19T15:30:31.194Z,29.60
2022-08-19T15:32:59.060Z,29.60
2022-08-19T15:35:26.254Z,29.70
2022-08-19T15:37:54.829Z,29.60
2022-08-19T15:40:23.315Z,29.60
2022-08-19T15:42:50.601Z,29.40
2022-08-19T15:45:20.266Z,29.40
2022-08-19T15:47:46.941Z,29.40
2022-08-19T15:50:18.035Z,29.50
2022-08-19T15:52:56.675Z,29.60
2022-08-19T15:55:32.872Z,29.60
2022-08-19T15:58:28.513Z,29.50
2022-08-19T16:01:16.304Z,29.50
2022-08-19T16:04:03.245Z,29.60
2022-08-19T16:06:31.271Z,29.60
2022-08-19T16:09:01.811Z,29.50
2022-08-19T16:11:31.204Z,29.40
2022-08-19T16:13:59.155Z,29.50
2022-08-19T16:16:34.787Z,29.40
2022-08-19T16:19:06.895Z,29.40
2022-08-19T16:21:39.454Z,29.40
2022-08-19T16:24:10.440Z,29.20
2022-08-19T16:26:37.286Z,29.10
2022-08-19T16:29:08.962Z,29.30
2022-08-19T16:31:40.171Z,29.40
2022-08-19T16:34:06.924Z,29.50
2022-08-19T16:36:33.708Z,29.60
2022-08-19T16:39:00.721Z,29.60
2022-08-19T16:41:27.890Z,29.60
2022-08-19T16:43:55.253Z,29.50
2022-08-19T16:46:23.461Z,29.40
2022-08-19T16:48:54.369Z,29.30
2022-08-19T16:51:22.604Z,29.30
2022-08-19T16:53:51.874Z,29.20
2022-08-19T16:56:19.437Z,29.30
2022-08-19T16:58:46.033Z,29.30
2022-08-19T17:01:13.602Z,29.20
2022-08-19T17:03:40.338Z,29.10
2022-08-19T17:06:20.454Z,29.00
2022-08-19T17:08:49.780Z,29.00
2022-08-19T17:11:18.851Z,29.00
2022-08-19T17:13:47.995Z,29.00
2022-08-19T17:16:16.963Z,28.90
2022-08-19T17:18:43.898Z,28.90
2022-08-19T17:21:12.140Z,28.80
2022-08-19T17:23:43.031Z,28.80
2022-08-19T17:26:16.755Z,28.80
2022-08-19T17:28:47.897Z,28.80
2022-08-19T17:31:15.110Z,28.90
2022-08-19T17:33:41.828Z,28.70
2022-08-19T17:36:09.180Z,28.60
2022-08-19T17:38:37.231Z,28.60
2022-08-19T17:41:05.597Z,28.50
2022-08-19T17:43:37.947Z,28.40
2022-08-19T17:46:11.005Z,28.30
2022-08-19T17:48:38.824Z,28.40
2022-08-19T17:51:40.077Z,28.30
2022-08-19T17:54:12.011Z,28.10
2022-08-19T17:56:38.659Z,27.90
2022-08-19T17:59:06.345Z,28.00
2022-08-19T18:01:51.998Z,27.90
2022-08-19T18:04:19.628Z,27.70
2022-08-19T18:06:53.723Z,27.60
2022-08-19T18:09:41.796Z,27.50
2022-08-19T18:12:10.786Z,27.40
2022-08-19T18:14:39.103Z,27.30
2022-08-19T18:17:10.025Z,27.20
2022-08-19T18:19:41.607Z,27.10
2022-08-19T18:22:11.276Z,26.90
2022-08-19T18:24:40.620Z,26.80
2022-08-19T18:27:07.342Z,26.70
2022-08-19T18:29:34.087Z,26.60
2022-08-19T18:32:00.638Z,26.50
2022-08-19T18:34:27.245Z,26.40
2022-08-19T18:36:54.310Z,26.40
2022-08-19T18:39:39.742Z,26.30
2022-08-19T18:42:33.574Z,26.30
2022-08-19T18:45:19.191Z,26.20
2022-08-19T18:48:04.665Z,26.10
2022-08-19T18:50:31.339Z,26.00
2022-08-19T18:52:57.953Z,25.90
2022-08-19T18:55:26.671Z,25.70
2022-08-19T18:57:54.041Z,25.70
2022-08-19T19:00:21.000Z,25.60
2022-08-19T19:02:47.691Z,25.50
2022-08-19T19:05:15.327Z,25.50
2022-08-19T19:07:42.575Z,25.30
2022-08-19T19:10:09.356Z,25.30
2022-08-19T19:12:40.150Z,25.30
2022-08-19T19:15:07.455Z,25.20
2022-08-19T19:17:34.167Z,25.10
2022-08-19T19:20:00.826Z,25.00
2022-08-19T19:22:27.510Z,25.00
2022-08-19T19:24:54.452Z,24.90
2022-08-19T19:27:22.048Z,24.80
2022-08-19T19:29:52.343Z,24.80
2022-08-19T19:32:23.091Z,24.80
2022-08-19T19:34:50.250Z,24.70
2022-08-19T19:37:17.214Z,24.60
2022-08-19T19:39:46.776Z,24.60
2022-08-19T19:42:20.520Z,24.50
2022-08-19T19:44:50.282Z,24.60
2022-08-19T19:47:18.740Z,24.60
2022-08-19T19:50:12.607Z,24.50
2022-08-19T19:52:33.652Z,24.40
2022-08-19T19:55:01.333Z,24.30
2022-08-19T19:57:30.187Z,24.30
2022-08-19T19:59:56.911Z,24.30
2022-08-19T20:02:25.070Z,24.20
2022-08-19T20:04:52.013Z,24.20
2022-08-19T20:07:38.893Z,24.20
2022-08-19T20:10:05.842Z,24.30
2022-08-19T20:12:32.545Z,24.20
2022-08-19T20:14:59.183Z,24.10
2022-08-19T20:17:25.868Z,24.10
2022-08-19T20:19:53.433Z,24.00
2022-08-19T20:22:20.066Z,23.90
2022-08-19T20:24:48.272Z,23.90
2022-08-19T20:27:14.880Z,23.90
2022-08-19T20:29:44.457Z,24.00
2022-08-19T20:32:12.326Z,24.10
2022-08-19T20:34:40.442Z,24.00
2022-08-19T20:37:09.005Z,24.00
2022-08-19T20:39:35.653Z,23.90
2022-08-19T20:42:02.428Z,23.90
2022-08-19T20:44:29.110Z,24.00
2022-08-19T20:46:58.459Z,23.90
2022-08-19T20:49:27.059Z,23.90
2022-08-19T20:51:55.183Z,23.80
2022-08-19T20:54:21.778Z,23.80
2022-08-19T20:56:48.357Z,23.70
2022-08-19T20:59:14.993Z,23.80
2022-08-19T21:01:41.946Z,23.60
2022-08-19T21:04:08.522Z,23.60
2022-08-19T21:06:35.111Z,23.50
2022-08-19T21:09:01.690Z,23.50
2022-08-19T21:11:28.282Z,23.50
2022-08-19T21:13:54.938Z,23.50
2022-08-19T21:16:22.013Z,23.60
2022-08-19T21:18:48.645Z,23.70
2022-08-19T21:21:15.894Z,23.70
2022-08-19T21:23:44.079Z,23.60
2022-08-19T21:26:10.969Z,23.50
2022-08-19T21:28:37.558Z,23.50
2022-08-19T21:31:06.552Z,23.50
2022-08-19T21:33:33.572Z,23.40
2022-08-19T21:36:00.358Z,23.40
2022-08-19T21:38:27.599Z,23.30
2022-08-19T21:40:54.527Z,23.30
2022-08-19T21:43:22.242Z,23.20
2022-08-19T21:45:50.407Z,23.10
2022-08-19T21:48:17.470Z,23.00
2022-08-19T21:50:48.320Z,23.10
2022-08-19T21:53:19.117Z,23.00
2022-08-19T21:55:53.173Z,23.10
2022-08-19T21:58:29.999Z,23.10
2022-08-19T22:01:05.460Z,23.10
2022-08-19T22:03:33.412Z,23.20
2022-08-19T22:06:00.013Z,23.20
2022-08-19T22:08:27.147Z,23.30
2022-08-19T22:10:54.054Z,23.30
2022-08-19T22:13:20.802Z,23.30
2022-08-19T22:15:50.066Z,23.20
2022-08-19T22:18:17.778Z,23.20
2022-08-19T22:20:44.912Z,23.30
2022-08-19T22:23:11.531Z,23.20
2022-08-19T22:25:41.310Z,23.30
2022-08-19T22:28:12.273Z,23.30
2022-08-19T22:30:41.775Z,23.40
2022-08-19T22:33:12.642Z,23.20
2022-08-19T22:35:41.579Z,23.10
2022-08-19T22:38:10.682Z,23.20
2022-08-19T22:40:40.423Z,23.20
2022-08-19T22:43:10.097Z,23.20
2022-08-19T22:45:38.022Z,23.20
2022-08-19T22:48:10.169Z,23.20
2022-08-19T22:50:38.023Z,23.20
2022-08-19T22:53:09.557Z,23.10
2022-08-19T22:55:39.392Z,23.10
2022-08-19T22:58:06.185Z,23.10
2022-08-19T23:00:33.477Z,23.00
2022-08-19T23:03:02.029Z,23.00
2022-08-19T23:05:29.523Z,22.90
2022-08-19T23:07:57.775Z,22.90
2022-08-19T23:10:27.359Z,22.90
2022-08-19T23:12:59.062Z,22.80
2022-08-19T23:15:31.507Z,22.80
2022-08-19T23:18:00.704Z,22.80
2022-08-19T23:20:33.870Z,22.90
2022-08-19T23:23:03.770Z,22.90
2022-08-19T23:25:32.643Z,22.90
2022-08-19T23:28:18.163Z,22.90
2022-08-19T23:30:46.872Z,23.00
2022-08-19T23:33:24.695Z,23.00
2022-08-19T23:36:04.901Z,23.00
2022-08-19T23:38:34.707Z,23.00
2022-08-19T23:41:05.447Z,23.00
2022-08-19T23:43:33.050Z,23.10
2022-08-19T23:46:02.153Z,23.10
2022-08-19T23:48:37.391Z,22.90
2022-08-19T23:51:06.827Z,23.00
2022-08-19T23:53:34.282Z,22.90
2022-08-19T23:56:00.863Z,22.90
2022-08-19T23:58:34.985Z,22.80
